Hastings Natural History Reservation, California Weather observations

Data are for 10 minute period ending at time listed.
 Day   Time   Solar   Ave.   Ave.  Ave.  Vector  Max.   Baro.   Total    
  of    of     Rad.   Air    Rel.  Wind   Wind   Wind  Press.  Precip.   
Year   Day            Temp.  Hum.  Speed  Dir.   Gust                    
2015   (PST)  Kw/m2    F      %     mph   deg.    mph    mb.     in.     
-------------------------------------------------------------------------
 147    0:40   0.00   48.1    93    0.7    62     2.6   952.8    0.00 
 147    0:50   0.00   48.0    94    1.6    67     3.4   952.7    0.00 
 147    1:00   0.00   47.8    94    1.7    69     3.1   952.6    0.00 
 147    1:10   0.00   47.8    94    1.5    43     3.0   952.7    0.00 
 147    1:20   0.00   47.7    95    1.6    42     3.1   952.6    0.00 
 147    1:30   0.00   47.8    95    1.6    38     3.1   952.5    0.00 
 147    1:40   0.00   47.8    96    1.6    37     2.7   952.5    0.00 
 147    1:50   0.00   47.6    96    1.6    31     2.9   952.5    0.00 
 147    2:00   0.00   47.6    96    2.4    42     3.6   952.5    0.00 
 147    2:10   0.00   47.4    97    2.0    40     3.7   952.5    0.00 
 147    2:20   0.00   47.3    98    1.8    57     3.2   952.4    0.00 
 147    2:30   0.00   47.1    98    1.8    53     3.4   952.4    0.00 
 147    2:40   0.00   46.6    98    2.6    48     4.6   952.5    0.00 
 147    2:50   0.00   46.3    99    1.9    41     3.4   952.4    0.00 
 147    3:00   0.00   46.0    99    2.6    50     4.3   952.3    0.00 
 147    3:10   0.00   45.5    99    2.0    62     3.9   952.2    0.00 
 147    3:20   0.00   45.3    99    1.7    70     2.9   952.2    0.00 
 147    3:30   0.00   45.3    99    1.9    56     4.0   952.1    0.00 
 147    3:40   0.00   44.8    98    2.3    52     3.5   952.1    0.00 
 147    3:50   0.00   45.0    98    1.8    59     3.0   952.1    0.00 
 147    4:00   0.00   44.9    98    1.9    52     3.2   952.1    0.00 
 147    4:10   0.00   44.6    98    2.1    60     3.1   952.1    0.00 
 147    4:20   0.00   44.5    98    1.9    56     3.7   952.0    0.00 
 147    4:30   0.00   44.1    99    2.7    59     3.9   951.9    0.00 
 147    4:40   0.00   44.0    99    1.5    56     3.1   951.8    0.00 
 147    4:50   0.00   44.0    99    0.9    56     2.0   951.8    0.00 
 147    5:00   0.00   44.1    99    0.9    65     2.4   951.9    0.00 
 147    5:10   0.00   43.7    99    1.4    53     2.1   952.0    0.00 
 147    5:20   0.00   43.7    99    1.1    60     2.0   952.2    0.00 
 147    5:30   0.00   43.8   100    1.6    49     2.5   952.2    0.00 
 147    5:40   0.00   43.2   100    1.4    46     2.3   952.3    0.00 
 147    5:50   0.00   43.3   100    0.8    60     2.3   952.4    0.00 
 147    6:00   0.00   43.2   100    2.5    51     3.7   952.3    0.00 
 147    6:10   0.00   42.9   100    1.6    47     2.9   952.4    0.00 
 147    6:20   0.00   42.9   100    1.4    57     2.8   952.3    0.00 
 147    6:30   0.00   43.2   100    0.2   312     1.2   952.4    0.00 
 147    6:40   0.01   43.0   100    0.2   133     1.3   952.4    0.00 
 147    6:50   0.04   43.2   100    0.3    33     1.4   952.5    0.00 
 147    7:00   0.05   43.4   100    1.1    58     2.0   952.5    0.00 
 147    7:10   0.06   43.6   100    0.6    61     2.2   952.6    0.00 
 147    7:20   0.09   43.7   100    0.5    92     1.8   952.8    0.00 
 147    7:30   0.07   43.9   100    0.3    86     1.6   952.9    0.00 
 147    7:40   0.12   44.1   100    0.5    65     1.5   952.9    0.00 
 147    7:50   0.21   45.6   100    0.1   253     0.9   952.7    0.00 
 147    8:00   0.28   47.7    99    0.4    19     1.5   952.6    0.00 
 147    8:10   0.31   48.8    96    0.9    68     1.7   952.7    0.00 
 147    8:20   0.34   50.5    86    1.6   250     4.1   952.7    0.00 
 147    8:30   0.38   50.8    80    3.2   249     6.1   952.8    0.00 
 147    8:40   0.41   51.3    80    3.2   252     8.2   953.0    0.00 
 147    8:50   0.44   52.0    79    2.1   276     6.4   953.2    0.00 
 147    9:00   0.39   50.4    83    4.4   245     7.5   953.3    0.00 
 147    9:10   0.46   51.0    82    3.5   251     6.6   953.3    0.00 
 147    9:20   0.53   52.2    79    2.4   260     7.5   953.3    0.00 
 147    9:30   0.55   54.4    74    1.6   313     4.7   953.2    0.00 
 147    9:40   0.58   55.7    71    1.4   268     3.7   953.2    0.00 
 147    9:50   0.61   56.5    69    2.2   258     6.3   953.2    0.00 
 147   10:00   0.65   56.2    69    3.4   251     7.1   953.0    0.00 
 147   10:10   0.68   55.7    70    4.5   246     9.3   953.0    0.00 
 147   10:20   0.69   57.2    67    2.5   250     7.7   953.0    0.00 
 147   10:30   0.72   58.4    65    2.0   244     6.1   952.9    0.00 
 147   10:40   0.74   59.5    62    3.4   262     8.4   952.7    0.00 
 147   10:50   0.77   59.9    61    2.7   254     6.8   952.7    0.00 
 147   11:00   0.79   60.6    60    3.6   257     7.6   952.8    0.00 
 147   11:10   0.81   61.0    58    2.9   251     7.4   952.7    0.00 
 147   11:20   0.81   62.1    56    3.6   260     8.8   952.6    0.00 
 147   11:30   0.83   63.8    54    3.9   250     9.1   952.5    0.00 
 147   11:40   0.81   63.7    54    3.3   242     8.3   952.5    0.00 
 147   11:50   0.85   65.8    50    2.7   258     8.9   952.4    0.00 
 147   12:00   0.86   66.2    49    4.1   250     8.7   952.4    0.00 
 147   12:10   0.90   67.1    46    3.1   254     8.5   952.2    0.00 
 147   12:20   0.87   68.2    43    3.6   263     8.6   952.2    0.00 
 147   12:30   0.88   68.5    37    3.7   260     9.2   952.3    0.00 
 147   12:40   0.92   70.5    34    2.2   278     9.9   952.2    0.00 
 147   12:50   0.90   70.3    32    3.3   254     9.9   952.1    0.00 
 147   13:00   0.87   70.1    29    5.4   250    10.9   952.0    0.00 
 147   13:10   0.90   71.1    28    4.7   254    10.2   952.0    0.00 
 147   13:20   0.91   72.3    28    3.2   279     8.0   952.1    0.00 
 147   13:30   0.91   73.3    31    2.9   254     7.4   952.1    0.00 
 147   13:40   0.92   73.2    37    3.6   267     9.7   952.1    0.00 
 147   13:50   0.89   71.4    42    4.5   262    11.5   952.1    0.00 
 147   14:00   0.91   71.3    43    5.2   260    10.7   952.0    0.00 
 147   14:10   0.85   70.6    44    5.7   248    12.9   952.0    0.00 
 147   14:20   0.88   71.1    43    4.1   257    10.4   952.0    0.00 
 147   14:30   0.87   71.0    43    4.5   253    12.1   952.0    0.00 
 147   14:40   0.88   72.6    43    2.2   300     7.5   952.0    0.00 
 147   14:50   0.86   72.9    43    3.0   275     8.7   952.1    0.00 
 147   15:00   0.85   73.0    43    3.1   286     8.0   952.2    0.00 
 147   15:10   0.84   73.0    43    2.3   326     7.2   952.2    0.00 
 147   15:20   0.84   72.6    44    2.4   284     7.5   952.3    0.00 
 147   15:30   0.81   72.3    44    3.1   282    11.5   952.3    0.00 
 147   15:40   0.79   72.2    44    3.4   275    12.6   952.2    0.00 
 147   15:50   0.77   72.1    44    3.0   289     7.5   952.2    0.00 
 147   16:00   0.75   71.1    45    3.9   262    10.2   952.1    0.00 
 147   16:10   0.73   70.9    45    3.5   269     9.9   952.0    0.00 
 147   16:20   0.69   72.4    43    2.9   296     8.3   952.0    0.00 
 147   16:30   0.68   72.5    43    2.9   274    10.5   952.1    0.00 
 147   16:40   0.63   70.3    46    4.1   256     9.5   952.2    0.00 
 147   16:50   0.58   69.0    48    3.6   264     9.0   952.2    0.00 
 147   17:00   0.58   67.4    50    5.2   251    12.6   952.1    0.00 
 147   17:10   0.56   66.9    50    5.2   252    10.5   952.2    0.00 
 147   17:20   0.48   66.5    50    4.1   260    10.8   952.2    0.00 
 147   17:30   0.43   68.0    48    2.7   260     8.9   952.1    0.00 
 147   17:40   0.39   66.3    51    2.8   263     5.9   952.1    0.00 
 147   17:50   0.42   66.1    51    4.2   246     8.2   952.0    0.00 
 147   18:00   0.41   65.6    52    4.3   246    10.2   952.1    0.00 
 147   18:10   0.28   66.0    51    2.4   267     7.5   952.0    0.00 
 147   18:20   0.31   65.0    52    4.1   251     8.9   951.9    0.00 
 147   18:30   0.34   64.0    54    4.3   246     8.0   951.8    0.00 
 147   18:40   0.27   64.6    53    2.7   259     5.8   951.7    0.00 
 147   18:50   0.25   64.2    54    2.4   258     5.3   951.7    0.00 
 147   19:00   0.19   62.9    56    3.1   255     6.0   951.7    0.00 
 147   19:10   0.03   62.3    57    1.4   271     4.4   951.7    0.00 
 147   19:20   0.03   62.3    58    2.2   252     5.0   951.9    0.00 
 147   19:30   0.02   61.0    60    2.6   245     5.1   952.1    0.00 
 147   19:40   0.01   60.5    61    2.7   242     4.3   952.2    0.00 
 147   19:50   0.01   59.3    64    2.6   241     4.6   952.2    0.00 
 147   20:00   0.01   58.3    66    2.1   224     3.3   952.3    0.00 
 147   20:10   0.00   57.0    68    2.0   231     4.2   952.4    0.00 
 147   20:20   0.00   55.9    71    1.4   242     2.9   952.5    0.00 
 147   20:30   0.00   55.1    72    0.3   288     1.8   952.6    0.00 
 147   20:40   0.00   54.2    74    0.0    40     0.4   952.7    0.00 
 147   20:50   0.00   53.2    75    0.0     0     0.0   952.8    0.00 
 147   21:00   0.00   52.3    78    0.0     0     0.0   953.0    0.00 
 147   21:10   0.00   51.5    78    0.0    62     0.5   953.0    0.00 
 147   21:20   0.00   50.2    79    1.0    43     1.3   953.1    0.00 
 147   21:30   0.00   49.2    80    1.1    42     1.8   953.2    0.00 
 147   21:40   0.00   48.6    81    0.7    54     2.1   953.2    0.00 
 147   21:50   0.00   48.5    83    1.0    51     1.9   953.1    0.00 
 147   22:00   0.00   48.1    83    0.6    46     1.3   953.1    0.00 
 147   22:10   0.00   47.7    84    0.5    38     1.3   953.1    0.00 
 147   22:20   0.00   47.3    83    0.1    57     0.7   953.1    0.00 
 147   22:30   0.00   46.8    83    0.4    65     1.3   953.3    0.00 
 147   22:40   0.00   46.3    83    0.5    53     1.3   953.4    0.00 
 147   22:50   0.00   45.7    83    1.2    57     1.8   953.4    0.00 
 147   23:00   0.00   45.2    83    0.7    37     1.3   953.2    0.00 
 147   23:10   0.00   44.6    83    1.0    44     1.6   953.3    0.00 
 147   23:20   0.00   44.2    83    0.5    46     1.2   953.3    0.00 
 147   23:30   0.00   44.0    83    1.1    44     2.0   953.3    0.00 
 147   23:40   0.00   43.5    84    1.0    41     1.7   953.2    0.00 
 147   23:50   0.00   43.4    84    0.6    41     2.0   953.1    0.00 
 148    0:00   0.00   43.4    84    0.8    50     1.8   953.0    0.00 
 148    0:10   0.00   43.4    84    0.8    49     1.5   952.8    0.00 
 148    0:20   0.00   43.4    83    0.2    49     1.3   952.8    0.00 
 148    0:30   0.00   43.4    84    0.1    60     0.7   952.8    0.00 

Return to Hastings Natural History Reservation graphs page.


Western Regional Climate Center,wrcc@dri.edu